Time;durP1;ratioP1;P1;durP2;ratioP2;P2;SDS_P1;SDS_P2;PMS_P1;PMS_P2;Temp;Humidity;BMP_temperature;BMP_pressure;BME280_temperature;BME280_humidity;BME280_pressure;Samples;Min_cycle;Max_cycle;Signal;HPM_P1;HPM_P2
2021/05/26 00:00:58;;;;;;;6.82;3.13;;;10.10;99.90;;;;;;5031867;28;20185;-76
2021/05/26 00:03:25;;;;;;;7.88;2.95;;;10.00;99.90;;;;;;5011748;28;20203;-76
2021/05/26 00:05:52;;;;;;;4.78;2.88;;;10.00;99.90;;;;;;4996021;28;20667;-75
2021/05/26 00:08:34;;;;;;;4.30;2.65;;;10.00;99.90;;;;;;5030363;28;20212;-77
2021/05/26 00:11:05;;;;;;;7.28;2.70;;;10.00;99.90;;;;;;4997279;28;20202;-76
2021/05/26 00:13:32;;;;;;;5.55;2.33;;;10.10;99.90;;;;;;5012861;28;20217;-77
2021/05/26 00:15:59;;;;;;;4.68;2.80;;;10.10;99.90;;;;;;5002099;28;20671;-76
2021/05/26 00:18:26;;;;;;;7.72;2.88;;;10.00;99.90;;;;;;5023385;28;20305;-76
2021/05/26 00:20:53;;;;;;;6.40;2.13;;;10.00;99.90;;;;;;5014084;28;20208;-76
2021/05/26 00:23:22;;;;;;;8.93;2.45;;;10.00;99.90;;;;;;5012462;28;20190;-75
2021/05/26 00:25:49;;;;;;;6.15;2.30;;;10.00;99.90;;;;;;5003149;28;20540;-75
2021/05/26 00:28:16;;;;;;;5.57;3.30;;;10.00;99.90;;;;;;5030760;28;20571;-75
2021/05/26 00:30:47;;;;;;;7.13;3.45;;;10.00;99.90;;;;;;5032505;28;20204;-76
2021/05/26 00:33:15;;;;;;;7.53;2.97;;;10.00;99.90;;;;;;5026661;28;20190;-75
2021/05/26 00:35:43;;;;;;;8.10;3.90;;;10.00;99.90;;;;;;4992330;28;20187;-77
2021/05/26 00:38:10;;;;;;;8.25;2.75;;;10.00;99.90;;;;;;4992039;28;20281;-76
2021/05/26 00:40:37;;;;;;;6.00;2.53;;;10.00;99.90;;;;;;4969111;28;20195;-76
2021/05/26 00:43:04;;;;;;;8.05;2.70;;;10.10;99.90;;;;;;5004831;28;20236;-76
2021/05/26 00:45:32;;;;;;;6.05;2.70;;;10.00;99.90;;;;;;5031466;28;20277;-76
2021/05/26 00:47:59;;;;;;;6.15;3.40;;;10.10;99.90;;;;;;5006849;28;20249;-75
2021/05/26 00:50:30;;;;;;;2.80;2.40;;;10.00;99.90;;;;;;5031477;28;20221;-76
2021/05/26 00:52:58;;;;;;;5.63;2.80;;;10.00;99.90;;;;;;5027896;28;20196;-76
2021/05/26 00:55:27;;;;;;;7.18;2.53;;;10.10;99.90;;;;;;5010977;28;20253;-75
2021/05/26 00:57:57;;;;;;;8.80;2.92;;;10.00;99.90;;;;;;5005383;28;20622;-75
2021/05/26 01:00:27;;;;;;;3.28;2.30;;;10.00;99.90;;;;;;5031488;28;20240;-75
2021/05/26 01:03:14;;;;;;;4.50;2.17;;;10.00;99.90;;;;;;4994702;28;20192;-75
2021/05/26 01:05:43;;;;;;;3.80;2.30;;;10.00;99.90;;;;;;4994827;28;20186;-75
2021/05/26 01:08:12;;;;;;;4.97;3.05;;;10.00;99.90;;;;;;4992344;28;20212;-76
2021/05/26 01:10:39;;;;;;;6.30;3.13;;;10.00;99.90;;;;;;5009047;28;20699;-74
2021/05/26 01:13:13;;;;;;;5.63;3.00;;;10.00;99.90;;;;;;5031066;28;20559;-74
2021/05/26 01:15:41;;;;;;;5.15;2.60;;;10.00;99.90;;;;;;5031265;28;20584;-76
2021/05/26 01:18:27;;;;;;;3.83;2.72;;;10.00;99.90;;;;;;5024745;28;20234;-77
2021/05/26 01:21:26;;;;;;;4.05;2.55;;;10.00;99.90;;;;;;4985352;28;20221;-75
2021/05/26 01:23:53;;;;;;;7.40;2.88;;;10.10;99.90;;;;;;4998444;28;20238;-75
2021/05/26 01:26:25;;;;;;;8.85;2.95;;;10.10;99.90;;;;;;4978390;28;20187;-76
2021/05/26 01:28:52;;;;;;;7.90;3.00;;;10.10;99.90;;;;;;5012787;28;20222;-76
2021/05/26 01:31:19;;;;;;;4.15;2.40;;;10.00;99.90;;;;;;5025385;28;20182;-76
2021/05/26 01:33:53;;;;;;;5.90;2.72;;;10.10;99.90;;;;;;4996028;28;20245;-76
2021/05/26 01:36:25;;;;;;;9.05;3.85;;;10.00;99.90;;;;;;5016038;28;20236;-77
2021/05/26 01:38:52;;;;;;;6.32;2.40;;;10.00;99.90;;;;;;5028879;28;20244;-75
2021/05/26 01:41:20;;;;;;;5.65;3.03;;;10.00;99.90;;;;;;4989239;28;20233;-75
2021/05/26 01:43:47;;;;;;;4.55;2.30;;;10.00;99.90;;;;;;5012926;28;20217;-76
2021/05/26 01:46:16;;;;;;;8.38;3.40;;;10.00;99.90;;;;;;5011940;28;20200;-77
2021/05/26 01:48:50;;;;;;;11.15;2.95;;;9.90;99.90;;;;;;5000059;28;20246;-76
2021/05/26 01:51:17;;;;;;;6.70;2.97;;;10.00;99.90;;;;;;4995314;28;20187;-75
2021/05/26 01:53:46;;;;;;;7.05;2.80;;;10.00;99.90;;;;;;5009770;28;20222;-75
2021/05/26 01:56:15;;;;;;;11.15;3.03;;;10.00;99.90;;;;;;4969188;28;20211;-75
2021/05/26 01:58:55;;;;;;;4.18;2.30;;;10.00;99.90;;;;;;5013160;28;20319;-75
2021/05/26 02:01:27;;;;;;;7.20;2.20;;;10.00;99.90;;;;;;4995681;28;20313;-75
2021/05/26 02:03:56;;;;;;;7.85;3.08;;;10.00;99.90;;;;;;4977660;28;20230;-75
2021/05/26 02:06:25;;;;;;;6.63;2.92;;;10.00;99.90;;;;;;4994010;28;20181;-75
2021/05/26 02:08:55;;;;;;;13.13;3.92;;;9.90;99.90;;;;;;5014446;28;20271;-75
2021/05/26 02:14:13;;;;;;;4.07;2.70;;;10.00;99.90;;;;;;5034535;28;20216;-76
2021/05/26 02:16:40;;;;;;;2.60;2.15;;;10.00;99.90;;;;;;4998277;28;20207;-75
2021/05/26 02:19:07;;;;;;;3.75;2.10;;;10.00;99.90;;;;;;4979408;28;20228;-75
2021/05/26 02:21:34;;;;;;;3.90;2.20;;;9.90;99.90;;;;;;4997504;28;20228;-76
2021/05/26 02:24:01;;;;;;;6.80;3.63;;;9.90;99.90;;;;;;5014947;28;20241;-76
2021/05/26 02:26:28;;;;;;;5.82;2.13;;;9.90;99.90;;;;;;5012305;28;20221;-76
2021/05/26 02:28:56;;;;;;;6.50;2.50;;;9.90;99.90;;;;;;5022155;28;20238;-76
2021/05/26 02:31:26;;;;;;;3.10;2.10;;;10.00;99.90;;;;;;5017041;28;20540;-75
2021/05/26 02:33:53;;;;;;;6.47;2.47;;;9.90;99.90;;;;;;5025593;28;20300;-75
2021/05/26 02:36:21;;;;;;;7.22;2.20;;;9.90;99.90;;;;;;5008182;28;20721;-75
2021/05/26 02:38:49;;;;;;;3.95;2.28;;;9.90;99.90;;;;;;5006677;28;20221;-76
2021/05/26 02:41:16;;;;;;;3.58;1.98;;;9.80;99.90;;;;;;5009268;28;20200;-75
2021/05/26 02:43:43;;;;;;;3.92;1.80;;;9.80;99.90;;;;;;5027112;28;20270;-74
2021/05/26 02:46:10;;;;;;;4.78;2.00;;;9.80;99.90;;;;;;5034403;28;20615;-76
2021/05/26 02:48:37;;;;;;;3.40;2.33;;;9.80;99.90;;;;;;5021725;28;20218;-75
2021/05/26 02:51:04;;;;;;;3.33;2.10;;;9.80;99.90;;;;;;5013521;28;20201;-75
2021/05/26 02:53:33;;;;;;;4.78;1.80;;;9.80;99.90;;;;;;4996977;28;20543;-76
2021/05/26 02:56:02;;;;;;;2.67;1.80;;;9.70;99.90;;;;;;4996755;28;20190;-74
2021/05/26 02:58:34;;;;;;;4.20;1.63;;;9.80;99.90;;;;;;5019028;28;20223;-77
2021/05/26 03:01:10;;;;;;;1.75;1.60;;;9.80;99.90;;;;;;5014750;28;20189;-76
2021/05/26 03:04:04;;;;;;;2.30;1.67;;;9.70;99.90;;;;;;5008664;28;20210;-75
2021/05/26 03:06:39;;;;;;;1.42;1.33;;;9.70;99.90;;;;;;5014793;28;20867;-77
2021/05/26 03:09:07;;;;;;;2.20;1.30;;;9.70;99.90;;;;;;5013750;28;20253;-75
2021/05/26 03:11:37;;;;;;;1.23;0.82;;;9.70;99.90;;;;;;5022837;28;20663;-75
2021/05/26 03:14:19;;;;;;;2.90;1.15;;;9.60;99.90;;;;;;5017233;28;20221;-75
2021/05/26 03:16:51;;;;;;;2.28;1.60;;;9.70;99.90;;;;;;5015341;28;20671;-75
2021/05/26 03:19:18;;;;;;;3.42;1.48;;;9.70;99.90;;;;;;5000832;28;20230;-75
2021/05/26 03:21:46;;;;;;;1.98;0.80;;;9.70;99.90;;;;;;5006460;28;20192;-75
2021/05/26 03:24:34;;;;;;;2.97;1.00;;;9.70;99.90;;;;;;4996096;28;20232;-74
2021/05/26 03:27:01;;;;;;;1.83;1.00;;;9.60;99.90;;;;;;5033210;28;20213;-75
2021/05/26 03:29:28;;;;;;;1.73;0.90;;;9.60;99.90;;;;;;5032797;28;20225;-75
2021/05/26 03:31:55;;;;;;;1.00;0.65;;;9.60;99.90;;;;;;5014360;28;20190;-76
2021/05/26 03:34:23;;;;;;;1.83;1.10;;;9.60;99.90;;;;;;5010621;28;20202;-75
2021/05/26 03:36:53;;;;;;;1.90;0.80;;;9.60;99.90;;;;;;5013238;28;20618;-75
2021/05/26 03:39:21;;;;;;;0.60;0.60;;;9.60;99.90;;;;;;5001909;28;20695;-75
2021/05/26 03:41:48;;;;;;;2.22;0.98;;;9.60;99.90;;;;;;5012704;28;20606;-75
2021/05/26 03:44:22;;;;;;;2.00;0.85;;;9.60;99.90;;;;;;5029355;28;20217;-75
2021/05/26 03:46:52;;;;;;;2.88;0.85;;;9.60;99.90;;;;;;5016037;28;20201;-75
2021/05/26 03:49:19;;;;;;;1.02;0.60;;;9.60;99.90;;;;;;4988882;28;20222;-76
2021/05/26 03:51:51;;;;;;;1.45;0.70;;;9.60;99.90;;;;;;4976411;28;20246;-76
2021/05/26 03:54:18;;;;;;;1.95;0.95;;;9.60;99.90;;;;;;5026093;28;20224;-76
2021/05/26 03:56:47;;;;;;;0.80;0.60;;;9.50;99.90;;;;;;4970630;28;20225;-75
2021/05/26 03:59:21;;;;;;;0.70;0.40;;;9.60;99.90;;;;;;5032507;28;20233;-76
2021/05/26 04:01:52;;;;;;;1.35;0.80;;;9.50;99.90;;;;;;4990963;28;20201;-76
2021/05/26 04:04:19;;;;;;;2.13;0.70;;;9.50;99.90;;;;;;4978390;28;20305;-74
2021/05/26 04:06:48;;;;;;;1.35;0.85;;;9.50;99.90;;;;;;4998168;28;20201;-74
2021/05/26 04:09:20;;;;;;;1.02;0.50;;;9.50;99.90;;;;;;5031975;28;20223;-75
2021/05/26 04:11:48;;;;;;;1.30;1.00;;;9.60;99.90;;;;;;4997815;28;21406;-75
2021/05/26 04:14:34;;;;;;;1.85;1.10;;;9.60;99.90;;;;;;5032545;28;20221;-75
2021/05/26 04:17:22;;;;;;;3.03;1.38;;;9.60;99.90;;;;;;5010867;28;20576;-75
2021/05/26 04:20:03;;;;;;;2.55;1.10;;;9.60;99.90;;;;;;4994363;28;20252;-74
2021/05/26 04:22:33;;;;;;;1.48;1.27;;;9.70;99.90;;;;;;4996802;28;20237;-75
2021/05/26 04:25:02;;;;;;;1.83;1.00;;;9.70;99.90;;;;;;5011698;28;20213;-75
2021/05/26 04:27:32;;;;;;;1.50;1.20;;;9.80;99.90;;;;;;5008843;28;20205;-76
2021/05/26 04:30:01;;;;;;;2.28;1.10;;;9.80;99.90;;;;;;5032051;28;20368;-75
2021/05/26 04:32:32;;;;;;;2.35;0.90;;;9.80;99.90;;;;;;5013484;28;20281;-75
2021/05/26 04:35:00;;;;;;;1.80;0.88;;;9.70;99.90;;;;;;5024134;28;20242;-77
2021/05/26 04:37:27;;;;;;;1.50;0.90;;;9.70;99.90;;;;;;5014504;28;20216;-75
2021/05/26 04:39:54;;;;;;;2.15;0.80;;;9.80;99.90;;;;;;5011290;28;20209;-76
2021/05/26 04:42:21;;;;;;;1.70;0.65;;;9.80;99.90;;;;;;5012447;28;20632;-74
2021/05/26 04:44:50;;;;;;;1.10;1.00;;;9.90;99.90;;;;;;5009477;28;20221;-76
2021/05/26 04:47:20;;;;;;;1.30;0.63;;;9.90;99.90;;;;;;5011039;28;20214;-75
2021/05/26 04:49:47;;;;;;;1.45;0.63;;;9.90;99.90;;;;;;4995008;28;20233;-76
2021/05/26 04:52:13;;;;;;;1.77;0.50;;;9.80;99.90;;;;;;4997704;28;20194;-76
2021/05/26 04:54:41;;;;;;;1.30;0.80;;;9.90;99.90;;;;;;5026962;28;20467;-75
2021/05/26 04:57:08;;;;;;;1.90;0.70;;;9.90;99.90;;;;;;4995073;28;20234;-75
2021/05/26 04:59:35;;;;;;;0.80;0.50;;;9.90;99.90;;;;;;5013968;28;20227;-76
2021/05/26 05:02:05;;;;;;;1.48;0.85;;;9.80;99.90;;;;;;5031937;28;20186;-75
2021/05/26 05:04:34;;;;;;;0.90;0.57;;;10.00;99.90;;;;;;5004597;28;20631;-75
2021/05/26 05:07:04;;;;;;;0.77;0.70;;;9.90;99.90;;;;;;4991359;28;20206;-75
2021/05/26 05:09:33;;;;;;;3.35;0.52;;;10.00;99.90;;;;;;4995308;28;20221;-76
2021/05/26 05:12:01;;;;;;;1.30;0.80;;;10.00;99.90;;;;;;5012666;28;20656;-76
2021/05/26 05:14:28;;;;;;;0.80;0.50;;;9.90;99.90;;;;;;5010393;28;20226;-76
2021/05/26 05:16:55;;;;;;;1.45;0.75;;;10.00;99.90;;;;;;5022615;28;20205;-76
2021/05/26 05:19:22;;;;;;;1.20;0.80;;;10.00;99.90;;;;;;5019277;28;20259;-76
2021/05/26 05:21:49;;;;;;;1.75;0.68;;;10.00;99.90;;;;;;4995008;28;20255;-75
2021/05/26 05:24:17;;;;;;;0.60;0.40;;;10.00;99.90;;;;;;5011397;28;20217;-76
2021/05/26 05:26:49;;;;;;;1.02;0.50;;;10.00;99.90;;;;;;4998813;28;20217;-77
2021/05/26 05:29:19;;;;;;;0.60;0.45;;;10.00;99.90;;;;;;4995123;28;20220;-75
2021/05/26 05:31:46;;;;;;;1.88;0.60;;;10.00;99.90;;;;;;5012362;28;20654;-76
2021/05/26 05:34:13;;;;;;;2.00;0.93;;;10.00;99.90;;;;;;4993809;28;20243;-75
2021/05/26 05:36:40;;;;;;;3.05;0.93;;;10.00;99.90;;;;;;5001918;28;20238;-75
2021/05/26 05:39:06;;;;;;;0.70;0.60;;;9.90;99.90;;;;;;5013526;28;20226;-76
2021/05/26 05:41:33;;;;;;;1.13;0.73;;;9.90;99.90;;;;;;5015548;28;20184;-77
2021/05/26 05:44:00;;;;;;;1.53;0.67;;;10.00;99.90;;;;;;4997845;28;20455;-75
2021/05/26 05:46:27;;;;;;;1.23;0.85;;;10.00;99.90;;;;;;5026212;28;20466;-76
2021/05/26 05:48:58;;;;;;;1.02;0.90;;;10.10;99.90;;;;;;4996681;28;20220;-76
2021/05/26 05:51:25;;;;;;;1.43;0.90;;;10.10;99.90;;;;;;5015238;28;20290;-76
2021/05/26 05:53:54;;;;;;;1.88;0.68;;;10.10;99.90;;;;;;5018319;28;20472;-74
2021/05/26 05:56:21;;;;;;;1.05;0.70;;;10.10;99.90;;;;;;4980416;28;20481;-76
2021/05/26 05:58:49;;;;;;;2.75;0.75;;;10.20;99.90;;;;;;5026125;28;20495;-76
2021/05/26 06:01:16;;;;;;;0.60;0.40;;;10.20;99.90;;;;;;5031492;28;20202;-76
2021/05/26 06:03:43;;;;;;;0.73;0.60;;;10.30;99.90;;;;;;5023883;28;20493;-75
2021/05/26 06:06:17;;;;;;;1.07;0.60;;;10.20;99.90;;;;;;5033963;28;20718;-75
2021/05/26 06:08:47;;;;;;;1.98;0.80;;;10.30;99.90;;;;;;5021083;28;20475;-75
2021/05/26 06:11:14;;;;;;;0.93;0.60;;;10.30;99.90;;;;;;5014531;28;20573;-76
2021/05/26 06:13:45;;;;;;;1.15;0.80;;;10.30;99.90;;;;;;5027392;28;20318;-76
2021/05/26 06:16:12;;;;;;;1.13;0.65;;;10.30;99.90;;;;;;5031935;28;20269;-76
2021/05/26 06:18:39;;;;;;;0.70;0.50;;;10.40;99.90;;;;;;5012722;28;20244;-76
2021/05/26 06:21:06;;;;;;;0.80;0.77;;;10.40;99.90;;;;;;5094235;22;21602;-79
2021/05/26 06:23:35;;;;;;;0.70;0.70;;;10.50;99.90;;;;;;4995829;28;20571;-79
2021/05/26 06:26:03;;;;;;;1.07;0.50;;;10.50;99.90;;;;;;4985150;28;20500;-79
2021/05/26 06:28:30;;;;;;;0.90;0.50;;;10.50;99.90;;;;;;5014249;28;20483;-79
2021/05/26 06:30:57;;;;;;;0.60;0.53;;;10.50;99.90;;;;;;5014013;28;20559;-79
2021/05/26 06:33:25;;;;;;;2.00;0.83;;;10.50;99.90;;;;;;5013801;28;20452;-79
2021/05/26 06:35:52;;;;;;;1.40;0.80;;;10.50;99.90;;;;;;4992410;28;20866;-79
2021/05/26 06:38:21;;;;;;;1.97;0.87;;;10.60;99.90;;;;;;4996196;28;20452;-79
2021/05/26 06:40:51;;;;;;;0.90;0.60;;;10.70;99.90;;;;;;5003300;28;20457;-79
2021/05/26 06:43:18;;;;;;;1.00;0.63;;;10.70;99.90;;;;;;4995990;28;20455;-79
2021/05/26 06:45:48;;;;;;;0.80;0.70;;;10.80;99.90;;;;;;4995626;28;20548;-79
2021/05/26 06:48:15;;;;;;;1.10;0.90;;;10.80;99.90;;;;;;4989424;28;20800;-79
2021/05/26 06:50:42;;;;;;;1.73;0.70;;;10.80;99.90;;;;;;4994250;28;20885;-79
2021/05/26 06:53:09;;;;;;;0.90;0.60;;;10.80;99.90;;;;;;5002513;28;20421;-79
2021/05/26 06:55:37;;;;;;;0.90;0.50;;;10.80;99.90;;;;;;5002847;28;20822;-79
2021/05/26 06:58:04;;;;;;;0.80;0.60;;;10.80;99.90;;;;;;4996980;28;21004;-79
2021/05/26 07:00:32;;;;;;;0.97;0.60;;;10.80;99.90;;;;;;5014029;28;20465;-79
2021/05/26 07:02:59;;;;;;;1.50;0.50;;;10.70;99.90;;;;;;4986761;28;20442;-79
2021/05/26 07:05:30;;;;;;;1.63;0.60;;;10.80;99.90;;;;;;4973663;28;20466;-79
2021/05/26 07:07:57;;;;;;;1.60;1.03;;;10.80;99.90;;;;;;4979635;28;20917;-79
2021/05/26 07:10:28;;;;;;;1.93;0.60;;;10.70;99.90;;;;;;5005182;28;20520;-79
2021/05/26 07:12:58;;;;;;;2.13;0.50;;;10.70;99.90;;;;;;4994090;28;20950;-79
2021/05/26 07:15:25;;;;;;;1.27;0.40;;;10.70;99.90;;;;;;5013634;28;20920;-79
2021/05/26 07:17:55;;;;;;;1.27;0.70;;;10.70;99.90;;;;;;5011635;28;21005;-79
2021/05/26 07:20:23;;;;;;;2.10;0.70;;;10.80;99.90;;;;;;4996181;28;20556;-79
2021/05/26 07:22:50;;;;;;;1.23;0.83;;;10.90;99.90;;;;;;4995974;28;20453;-79
2021/05/26 07:25:17;;;;;;;0.70;0.60;;;11.00;99.90;;;;;;4992144;28;20507;-79
2021/05/26 07:27:44;;;;;;;0.70;0.50;;;11.20;99.90;;;;;;5012305;28;20464;-79
2021/05/26 07:30:15;;;;;;;0.87;0.60;;;11.30;99.90;;;;;;5009307;28;20837;-79
2021/05/26 07:32:42;;;;;;;1.13;0.70;;;11.40;99.90;;;;;;4994130;28;20426;-79
2021/05/26 07:35:10;;;;;;;0.63;0.50;;;11.30;99.90;;;;;;4998347;28;20469;-79
2021/05/26 07:37:38;;;;;;;2.77;0.70;;;11.30;99.90;;;;;;5013543;28;20433;-79
2021/05/26 07:40:08;;;;;;;1.10;0.70;;;11.40;99.90;;;;;;4989585;28;20473;-79
2021/05/26 07:42:39;;;;;;;2.33;0.80;;;11.40;99.90;;;;;;4995977;28;20444;-78
2021/05/26 07:45:10;;;;;;;1.20;0.80;;;11.50;99.90;;;;;;4995247;28;20548;-79
2021/05/26 07:47:37;;;;;;;0.80;0.70;;;11.60;99.90;;;;;;4995734;28;20440;-79
2021/05/26 07:50:05;;;;;;;2.50;0.77;;;11.70;99.90;;;;;;5004814;28;20523;-79
2021/05/26 07:52:32;;;;;;;2.60;1.93;;;11.70;99.90;;;;;;4979408;28;20433;-79
2021/05/26 07:55:00;;;;;;;1.43;0.90;;;11.80;99.90;;;;;;5008228;28;20480;-79
2021/05/26 07:57:29;;;;;;;1.40;0.80;;;12.00;99.90;;;;;;4994876;28;20481;-79
2021/05/26 07:59:56;;;;;;;3.93;2.60;;;12.00;99.90;;;;;;4995242;28;20555;-79
2021/05/26 08:02:23;;;;;;;2.83;1.57;;;12.10;99.90;;;;;;5013066;28;20451;-79
2021/05/26 08:04:52;;;;;;;5.67;1.77;;;12.10;99.90;;;;;;4985613;28;21028;-79
2021/05/26 08:07:19;;;;;;;2.90;2.13;;;12.20;99.90;;;;;;5005634;28;20811;-79
2021/05/26 08:09:46;;;;;;;2.17;1.00;;;12.20;99.90;;;;;;5011678;28;20488;-79
2021/05/26 08:12:13;;;;;;;3.60;1.97;;;12.20;99.90;;;;;;4995809;28;20922;-79
2021/05/26 08:14:41;;;;;;;4.13;2.10;;;12.40;99.90;;;;;;5004492;28;21009;-79
2021/05/26 08:17:08;;;;;;;2.60;1.53;;;12.40;99.90;;;;;;5012643;28;20499;-79
2021/05/26 08:19:35;;;;;;;1.47;0.80;;;12.50;99.90;;;;;;4993838;28;20456;-79
2021/05/26 08:22:02;;;;;;;1.93;0.60;;;12.40;99.90;;;;;;4990509;28;20446;-79
2021/05/26 08:24:29;;;;;;;1.20;0.60;;;12.30;99.90;;;;;;5006503;28;20882;-79
2021/05/26 08:26:56;;;;;;;1.97;0.67;;;12.30;99.90;;;;;;5012734;28;20449;-79
2021/05/26 08:29:23;;;;;;;1.53;0.60;;;12.30;99.90;;;;;;5011661;28;20461;-79
2021/05/26 08:31:50;;;;;;;1.47;0.60;;;12.40;99.90;;;;;;5011662;28;20815;-79
2021/05/26 08:34:18;;;;;;;1.13;0.70;;;12.50;99.90;;;;;;5010760;28;20468;-79
2021/05/26 08:36:45;;;;;;;1.40;0.60;;;12.60;99.90;;;;;;5012740;28;20433;-79
2021/05/26 08:39:12;;;;;;;1.53;0.80;;;12.70;99.90;;;;;;5011493;28;20472;-79
2021/05/26 08:41:39;;;;;;;1.40;0.50;;;12.70;99.90;;;;;;5010355;28;20535;-79
2021/05/26 08:44:07;;;;;;;1.20;0.40;;;12.60;99.90;;;;;;5011294;28;20471;-79
2021/05/26 08:46:36;;;;;;;2.60;1.40;;;12.50;99.90;;;;;;4995373;28;20437;-79
2021/05/26 08:49:07;;;;;;;2.63;1.20;;;12.60;99.90;;;;;;5009593;28;20519;-79
2021/05/26 08:51:38;;;;;;;1.93;0.90;;;12.60;99.90;;;;;;5010495;28;20468;-79
2021/05/26 08:54:05;;;;;;;1.80;0.80;;;12.60;99.90;;;;;;5010272;28;20480;-79
2021/05/26 08:56:32;;;;;;;2.23;0.70;;;12.50;99.90;;;;;;5010988;28;20451;-79
2021/05/26 08:58:59;;;;;;;2.10;0.90;;;12.50;99.90;;;;;;5011963;28;20456;-80
2021/05/26 09:01:26;;;;;;;1.50;0.93;;;12.40;99.90;;;;;;5012227;28;20441;-80
2021/05/26 09:03:54;;;;;;;0.97;0.50;;;12.40;99.90;;;;;;5010200;28;20519;-80
2021/05/26 09:06:21;;;;;;;1.57;0.97;;;12.30;99.90;;;;;;5012045;28;20467;-80
2021/05/26 09:08:52;;;;;;;2.27;0.83;;;12.30;99.90;;;;;;5011546;28;20673;-79
2021/05/26 09:11:31;;;;;;;1.20;0.73;;;12.20;99.90;;;;;;4984014;28;20477;-80
2021/05/26 09:14:09;;;;;;;1.43;1.20;;;12.10;99.90;;;;;;5011546;28;20459;-80
2021/05/26 09:16:36;;;;;;;1.40;1.03;;;12.10;99.90;;;;;;4995344;28;20436;-81
2021/05/26 09:19:05;;;;;;;1.90;1.03;;;12.10;99.90;;;;;;4994313;28;20457;-82
2021/05/26 09:21:44;;;;;;;1.53;1.30;;;12.00;99.90;;;;;;4995458;28;20448;-81
2021/05/26 09:24:20;;;;;;;3.00;1.37;;;12.10;99.90;;;;;;5012153;28;20468;-81
2021/05/26 09:27:08;;;;;;;6.90;1.30;;;11.90;99.90;;;;;;5015715;28;20481;-82
2021/05/26 09:29:45;;;;;;;3.30;1.80;;;11.70;99.90;;;;;;4974744;28;20530;-81
2021/05/26 09:32:17;;;;;;;3.47;1.10;;;11.70;99.90;;;;;;4994645;28;20491;-81
2021/05/26 09:34:46;;;;;;;3.20;1.40;;;11.70;99.90;;;;;;4998153;28;20493;-80
2021/05/26 09:37:16;;;;;;;4.10;1.60;;;11.60;99.90;;;;;;4994644;28;20446;-80
2021/05/26 09:39:52;;;;;;;1.60;1.40;;;11.60;99.90;;;;;;5008879;28;20465;-80
2021/05/26 09:42:22;;;;;;;1.63;0.90;;;11.70;99.90;;;;;;5011664;28;20427;-80
2021/05/26 09:45:14;;;;;;;3.67;1.20;;;11.70;99.90;;;;;;5011245;28;20495;-80
2021/05/26 09:47:45;;;;;;;2.10;1.03;;;11.70;99.90;;;;;;5011899;28;20449;-80
2021/05/26 09:50:19;;;;;;;1.73;1.10;;;11.90;99.90;;;;;;5009124;28;20556;-80
2021/05/26 09:52:58;;;;;;;1.53;0.90;;;11.90;99.90;;;;;;5013259;28;20409;-80
2021/05/26 09:55:45;;;;;;;1.77;1.37;;;11.90;99.90;;;;;;5015543;28;20468;-80
2021/05/26 09:58:17;;;;;;;3.33;0.83;;;12.00;99.90;;;;;;4996646;28;20440;-80
2021/05/26 10:00:46;;;;;;;1.90;0.63;;;12.10;99.90;;;;;;5012652;28;20485;-81
2021/05/26 10:03:14;;;;;;;1.33;0.80;;;12.10;99.90;;;;;;5010293;28;20476;-79
2021/05/26 10:05:41;;;;;;;1.23;1.03;;;12.10;99.90;;;;;;5012001;28;20433;-79
2021/05/26 10:08:28;;;;;;;1.17;1.07;;;12.20;99.90;;;;;;5003855;28;20506;-79
2021/05/26 10:11:20;;;;;;;2.03;1.73;;;12.20;99.90;;;;;;4992357;28;20473;-80
2021/05/26 10:13:53;;;;;;;1.90;1.27;;;12.20;99.90;;;;;;5009867;28;20468;-80
2021/05/26 10:16:21;;;;;;;1.97;1.37;;;12.20;99.90;;;;;;4994008;28;20527;-80
2021/05/26 10:18:49;;;;;;;2.57;1.90;;;12.20;99.90;;;;;;4993756;28;20470;-82
2021/05/26 10:21:21;;;;;;;2.40;2.20;;;12.30;99.90;;;;;;5005628;28;20441;-81
2021/05/26 10:23:54;;;;;;;2.47;1.57;;;12.20;99.90;;;;;;5011749;28;20468;-81
2021/05/26 10:26:56;;;;;;;3.80;1.23;;;12.20;99.90;;;;;;4997532;28;20476;-81
2021/05/26 10:29:29;;;;;;;1.40;1.27;;;12.20;99.90;;;;;;4997696;28;20468;-81
2021/05/26 10:31:56;;;;;;;1.90;1.70;;;12.10;99.90;;;;;;5014412;28;20456;-81
2021/05/26 10:34:49;;;;;;;1.53;1.30;;;12.10;99.90;;;;;;5013299;28;20552;-80
2021/05/26 10:37:25;;;;;;;1.83;1.70;;;12.10;99.90;;;;;;4974562;28;20453;-80
2021/05/26 10:39:53;;;;;;;1.00;0.90;;;12.00;99.90;;;;;;5012792;28;20560;-80
2021/05/26 10:42:30;;;;;;;1.50;0.83;;;12.20;99.90;;;;;;5014344;28;20490;-80
2021/05/26 10:45:05;;;;;;;2.70;1.03;;;12.20;99.90;;;;;;4996864;28;20475;-80
2021/05/26 10:47:38;;;;;;;2.50;1.30;;;12.30;99.90;;;;;;4992983;28;20784;-80
2021/05/26 10:50:14;;;;;;;0.80;0.70;;;12.40;99.90;;;;;;5006186;28;20938;-81
2021/05/26 10:52:57;;;;;;;1.20;0.70;;;12.40;99.90;;;;;;5015128;28;20518;-80
2021/05/26 10:55:37;;;;;;;0.97;0.70;;;12.40;99.90;;;;;;5007809;28;20878;-80
2021/05/26 10:58:16;;;;;;;1.93;0.80;;;12.50;99.90;;;;;;5014487;28;20448;-80
2021/05/26 11:00:56;;;;;;;1.63;0.90;;;12.50;99.90;;;;;;4997363;28;20453;-80
2021/05/26 11:03:29;;;;;;;0.80;0.80;;;12.60;99.90;;;;;;4992518;28;20448;-80
2021/05/26 11:06:25;;;;;;;0.90;0.60;;;12.50;99.90;;;;;;5011294;28;20434;-80
2021/05/26 11:08:53;;;;;;;1.00;0.50;;;12.60;99.90;;;;;;4996162;28;20543;-80
2021/05/26 11:11:27;;;;;;;1.30;1.10;;;12.60;99.90;;;;;;5004550;28;20870;-80
2021/05/26 11:14:03;;;;;;;1.27;0.80;;;12.50;99.90;;;;;;5011962;28;20485;-80
2021/05/26 11:16:37;;;;;;;1.10;0.83;;;12.50;99.90;;;;;;4994170;28;20529;-80
2021/05/26 11:19:26;;;;;;;3.00;1.60;;;12.40;99.90;;;;;;5012573;28;20519;-80
2021/05/26 11:22:01;;;;;;;3.00;1.27;;;12.50;99.90;;;;;;4990722;28;20451;-80
2021/05/26 11:24:37;;;;;;;1.17;1.07;;;12.40;99.90;;;;;;5011675;28;20465;-81
2021/05/26 11:27:22;;;;;;;1.00;0.80;;;12.30;99.90;;;;;;4983631;28;20445;-80
2021/05/26 11:29:51;;;;;;;3.27;0.90;;;12.30;99.90;;;;;;4994584;28;20474;-80
2021/05/26 11:32:23;;;;;;;2.27;1.00;;;12.30;99.90;;;;;;4994998;28;20519;-80
2021/05/26 11:34:53;;;;;;;1.20;1.10;;;12.30;99.90;;;;;;5009004;28;20471;-79
2021/05/26 11:37:36;;;;;;;1.10;1.00;;;12.30;99.90;;;;;;5012589;28;20453;-79
2021/05/26 11:40:23;;;;;;;1.83;1.40;;;12.30;99.90;;;;;;4994341;28;21009;-79
2021/05/26 11:42:51;;;;;;;1.63;1.03;;;12.40;99.90;;;;;;5013747;28;21060;-79
2021/05/26 11:45:18;;;;;;;1.20;1.00;;;12.50;99.90;;;;;;4986714;28;20557;-79
2021/05/26 11:47:48;;;;;;;1.27;1.17;;;12.50;99.90;;;;;;4997078;28;20862;-80
2021/05/26 11:50:15;;;;;;;0.77;0.77;;;12.60;99.90;;;;;;4993354;28;20462;-80
2021/05/26 11:52:44;;;;;;;2.73;1.33;;;12.60;99.90;;;;;;4977500;28;20461;-80
2021/05/26 11:55:11;;;;;;;1.40;1.20;;;12.70;99.90;;;;;;4986653;28;20523;-80
2021/05/26 11:57:41;;;;;;;2.70;1.20;;;12.90;99.90;;;;;;4995342;28;20456;-80
2021/05/26 12:00:16;;;;;;;1.20;1.10;;;12.90;99.90;;;;;;4966999;28;21033;-80
2021/05/26 12:03:12;;;;;;;2.70;1.37;;;13.00;99.90;;;;;;5006636;28;20443;-79
2021/05/26 12:05:56;;;;;;;1.77;1.60;;;13.10;99.90;;;;;;4963447;28;20486;-79
2021/05/26 12:08:24;;;;;;;2.00;1.00;;;13.30;99.90;;;;;;4991288;28;20445;-79
2021/05/26 12:10:55;;;;;;;1.50;1.40;;;13.30;99.90;;;;;;4980292;28;20450;-80
2021/05/26 12:13:30;;;;;;;1.53;1.43;;;13.30;99.90;;;;;;5002062;28;20442;-79
2021/05/26 12:16:04;;;;;;;2.10;1.70;;;13.50;99.90;;;;;;5007886;28;20442;-80
2021/05/26 12:18:38;;;;;;;2.27;1.77;;;13.60;99.90;;;;;;4987651;28;20804;-80
2021/05/26 12:21:07;;;;;;;2.50;2.30;;;13.90;99.90;;;;;;4993924;28;20610;-80
2021/05/26 12:23:45;;;;;;;1.90;1.77;;;14.00;99.90;;;;;;5012241;28;20492;-80
2021/05/26 12:26:37;;;;;;;2.13;1.90;;;14.10;99.90;;;;;;4989729;28;20561;-80
2021/05/26 12:29:09;;;;;;;2.30;2.10;;;14.20;99.90;;;;;;4993595;28;20478;-79
2021/05/26 12:31:41;;;;;;;2.63;2.10;;;14.30;99.90;;;;;;4998656;28;20814;-80
2021/05/26 12:34:16;;;;;;;2.10;1.90;;;14.40;99.90;;;;;;4989653;28;20554;-80
2021/05/26 12:36:53;;;;;;;2.57;2.37;;;14.50;99.90;;;;;;4994975;28;20447;-80
2021/05/26 12:39:23;;;;;;;2.80;2.40;;;14.50;99.90;;;;;;5009823;28;20493;-80
2021/05/26 12:41:52;;;;;;;1.83;1.63;;;14.50;99.90;;;;;;4993261;28;20438;-79
2021/05/26 12:44:23;;;;;;;5.30;2.00;;;14.50;99.90;;;;;;4993898;28;20467;-80
2021/05/26 12:46:55;;;;;;;8.47;5.17;;;14.60;99.90;;;;;;5011662;28;20515;-79
2021/05/26 12:49:29;;;;;;;4.07;3.00;;;14.60;99.90;;;;;;4985672;28;20484;-79
2021/05/26 12:52:00;;;;;;;4.60;3.50;;;14.60;99.90;;;;;;4958409;28;20473;-79
2021/05/26 12:54:38;;;;;;;4.43;3.07;;;14.50;99.90;;;;;;4985793;28;20529;-80
2021/05/26 12:57:08;;;;;;;4.27;2.43;;;14.50;99.90;;;;;;4956038;28;20991;-79
2021/05/26 12:59:37;;;;;;;3.10;2.80;;;14.60;99.90;;;;;;4987701;28;20478;-80
2021/05/26 13:02:06;;;;;;;5.23;3.20;;;14.60;99.90;;;;;;4995492;28;20926;-79
2021/05/26 13:04:35;;;;;;;4.60;2.63;;;14.70;99.90;;;;;;5009563;28;20907;-79
2021/05/26 13:07:02;;;;;;;2.97;2.37;;;14.80;99.90;;;;;;5011840;28;20452;-79
2021/05/26 13:09:37;;;;;;;3.13;1.60;;;14.90;99.90;;;;;;4992920;28;20502;-79